sensor_id;sensor_type;location;lat;lon;timestamp;temperature;humidity
1367;DHT22;16877;48.810;9.282;2024-02-04T00:01:43;16.80;78.60
1367;DHT22;16877;48.810;9.282;2024-02-04T00:04:09;16.90;77.90
1367;DHT22;16877;48.810;9.282;2024-02-04T00:06:36;16.90;77.70
1367;DHT22;16877;48.810;9.282;2024-02-04T00:09:03;16.90;77.60
1367;DHT22;16877;48.810;9.282;2024-02-04T00:11:30;16.90;78.00
1367;DHT22;16877;48.810;9.282;2024-02-04T00:13:56;16.90;77.20
1367;DHT22;16877;48.810;9.282;2024-02-04T00:16:23;17.00;78.10
1367;DHT22;16877;48.810;9.282;2024-02-04T00:18:51;16.60;77.10
1367;DHT22;16877;48.810;9.282;2024-02-04T00:21:18;16.70;77.00
1367;DHT22;16877;48.810;9.282;2024-02-04T00:23:45;17.10;78.80
1367;DHT22;16877;48.810;9.282;2024-02-04T00:26:12;16.90;76.80
1367;DHT22;16877;48.810;9.282;2024-02-04T00:28:38;17.10;77.70
1367;DHT22;16877;48.810;9.282;2024-02-04T00:31:08;16.70;77.20
1367;DHT22;16877;48.810;9.282;2024-02-04T00:33:35;16.90;78.00
1367;DHT22;16877;48.810;9.282;2024-02-04T00:36:03;16.70;77.30
1367;DHT22;16877;48.810;9.282;2024-02-04T00:38:30;17.10;77.40
1367;DHT22;16877;48.810;9.282;2024-02-04T00:40:56;16.80;76.70
1367;DHT22;16877;48.810;9.282;2024-02-04T00:43:23;16.70;76.50
1367;DHT22;16877;48.810;9.282;2024-02-04T00:45:50;16.80;76.10
1367;DHT22;16877;48.810;9.282;2024-02-04T00:48:17;16.90;78.20
1367;DHT22;16877;48.810;9.282;2024-02-04T00:50:43;16.80;77.30
1367;DHT22;16877;48.810;9.282;2024-02-04T00:53:11;16.90;77.20
1367;DHT22;16877;48.810;9.282;2024-02-04T00:55:38;16.80;77.90
1367;DHT22;16877;48.810;9.282;2024-02-04T00:58:04;16.90;77.80
1367;DHT22;16877;48.810;9.282;2024-02-04T01:00:31;16.70;77.00
1367;DHT22;16877;48.810;9.282;2024-02-04T01:02:58;16.80;77.00
1367;DHT22;16877;48.810;9.282;2024-02-04T01:05:24;17.10;76.90
1367;DHT22;16877;48.810;9.282;2024-02-04T01:07:51;17.00;77.50
1367;DHT22;16877;48.810;9.282;2024-02-04T01:10:19;16.90;77.30
1367;DHT22;16877;48.810;9.282;2024-02-04T01:12:46;17.00;77.60
1367;DHT22;16877;48.810;9.282;2024-02-04T01:15:12;17.00;77.80
1367;DHT22;16877;48.810;9.282;2024-02-04T01:17:39;17.20;78.10
1367;DHT22;16877;48.810;9.282;2024-02-04T01:20:07;17.20;78.10
1367;DHT22;16877;48.810;9.282;2024-02-04T01:22:33;17.10;78.00
1367;DHT22;16877;48.810;9.282;2024-02-04T01:25:00;17.00;77.40
1367;DHT22;16877;48.810;9.282;2024-02-04T01:27:28;17.00;77.90
1367;DHT22;16877;48.810;9.282;2024-02-04T01:29:55;16.90;78.00
1367;DHT22;16877;48.810;9.282;2024-02-04T01:32:22;17.00;77.90
1367;DHT22;16877;48.810;9.282;2024-02-04T01:34:48;16.90;77.80
1367;DHT22;16877;48.810;9.282;2024-02-04T01:37:15;17.30;78.00
1367;DHT22;16877;48.810;9.282;2024-02-04T01:39:42;17.00;78.00
1367;DHT22;16877;48.810;9.282;2024-02-04T01:42:08;17.00;78.20
1367;DHT22;16877;48.810;9.282;2024-02-04T01:44:36;17.10;79.20
1367;DHT22;16877;48.810;9.282;2024-02-04T01:47:03;17.10;77.90
1367;DHT22;16877;48.810;9.282;2024-02-04T01:49:30;16.90;79.00
1367;DHT22;16877;48.810;9.282;2024-02-04T01:51:57;17.00;77.80
1367;DHT22;16877;48.810;9.282;2024-02-04T01:54:25;17.10;78.20
1367;DHT22;16877;48.810;9.282;2024-02-04T01:56:52;17.10;77.80
1367;DHT22;16877;48.810;9.282;2024-02-04T01:59:20;17.10;77.50
1367;DHT22;16877;48.810;9.282;2024-02-04T02:01:49;17.10;80.00
1367;DHT22;16877;48.810;9.282;2024-02-04T02:04:16;17.10;81.00
1367;DHT22;16877;48.810;9.282;2024-02-04T02:06:42;17.20;79.50
1367;DHT22;16877;48.810;9.282;2024-02-04T02:09:10;17.30;79.40
1367;DHT22;16877;48.810;9.282;2024-02-04T02:11:40;17.20;78.00
1367;DHT22;16877;48.810;9.282;2024-02-04T02:14:12;17.20;78.30
1367;DHT22;16877;48.810;9.282;2024-02-04T02:16:40;17.00;78.60
1367;DHT22;16877;48.810;9.282;2024-02-04T02:19:20;17.10;78.10
1367;DHT22;16877;48.810;9.282;2024-02-04T02:21:55;17.40;78.20
1367;DHT22;16877;48.810;9.282;2024-02-04T02:24:33;17.10;78.30
1367;DHT22;16877;48.810;9.282;2024-02-04T02:27:00;17.10;79.20
1367;DHT22;16877;48.810;9.282;2024-02-04T02:29:27;17.10;79.10
1367;DHT22;16877;48.810;9.282;2024-02-04T02:31:54;16.80;78.80
1367;DHT22;16877;48.810;9.282;2024-02-04T02:34:21;17.10;79.10
1367;DHT22;16877;48.810;9.282;2024-02-04T02:36:55;17.10;79.20
1367;DHT22;16877;48.810;9.282;2024-02-04T02:39:25;17.00;79.20
1367;DHT22;16877;48.810;9.282;2024-02-04T02:41:57;17.00;78.90
1367;DHT22;16877;48.810;9.282;2024-02-04T02:44:26;17.00;80.00
1367;DHT22;16877;48.810;9.282;2024-02-04T02:46:54;17.00;80.10
1367;DHT22;16877;48.810;9.282;2024-02-04T02:49:22;17.20;80.70
1367;DHT22;16877;48.810;9.282;2024-02-04T02:51:49;16.90;80.10
1367;DHT22;16877;48.810;9.282;2024-02-04T02:54:15;17.00;80.50
1367;DHT22;16877;48.810;9.282;2024-02-04T02:56:42;17.00;81.20
1367;DHT22;16877;48.810;9.282;2024-02-04T02:59:10;17.00;80.80
1367;DHT22;16877;48.810;9.282;2024-02-04T03:01:39;16.90;80.40
1367;DHT22;16877;48.810;9.282;2024-02-04T03:04:06;17.00;80.50
1367;DHT22;16877;48.810;9.282;2024-02-04T03:06:32;16.90;80.80
1367;DHT22;16877;48.810;9.282;2024-02-04T03:08:59;17.20;80.40
1367;DHT22;16877;48.810;9.282;2024-02-04T03:11:25;16.80;79.80
1367;DHT22;16877;48.810;9.282;2024-02-04T03:13:52;17.20;79.70
1367;DHT22;16877;48.810;9.282;2024-02-04T03:16:20;17.10;79.40
1367;DHT22;16877;48.810;9.282;2024-02-04T03:18:47;16.90;79.30
1367;DHT22;16877;48.810;9.282;2024-02-04T03:21:14;16.70;79.00
1367;DHT22;16877;48.810;9.282;2024-02-04T03:23:41;16.80;78.50
1367;DHT22;16877;48.810;9.282;2024-02-04T03:26:08;16.80;78.30
1367;DHT22;16877;48.810;9.282;2024-02-04T03:28:35;16.80;79.00
1367;DHT22;16877;48.810;9.282;2024-02-04T03:31:01;16.90;79.10
1367;DHT22;16877;48.810;9.282;2024-02-04T03:33:29;16.80;79.40
1367;DHT22;16877;48.810;9.282;2024-02-04T03:35:56;17.00;80.40
1367;DHT22;16877;48.810;9.282;2024-02-04T03:38:23;16.70;79.50
1367;DHT22;16877;48.810;9.282;2024-02-04T03:40:49;16.90;80.40
1367;DHT22;16877;48.810;9.282;2024-02-04T03:43:16;16.80;79.90
1367;DHT22;16877;48.810;9.282;2024-02-04T03:45:43;16.60;79.50
1367;DHT22;16877;48.810;9.282;2024-02-04T03:48:09;16.60;79.30
1367;DHT22;16877;48.810;9.282;2024-02-04T03:50:37;16.50;78.90
1367;DHT22;16877;48.810;9.282;2024-02-04T03:53:04;16.80;79.10
1367;DHT22;16877;48.810;9.282;2024-02-04T03:55:31;16.70;79.70
1367;DHT22;16877;48.810;9.282;2024-02-04T03:57:57;16.80;79.50
1367;DHT22;16877;48.810;9.282;2024-02-04T04:00:24;16.70;79.40
1367;DHT22;16877;48.810;9.282;2024-02-04T04:02:51;16.70;79.10
1367;DHT22;16877;48.810;9.282;2024-02-04T04:05:17;16.70;78.70
1367;DHT22;16877;48.810;9.282;2024-02-04T04:07:45;16.80;79.20
1367;DHT22;16877;48.810;9.282;2024-02-04T04:10:12;16.70;79.30
1367;DHT22;16877;48.810;9.282;2024-02-04T04:12:39;16.90;79.50
1367;DHT22;16877;48.810;9.282;2024-02-04T04:15:06;17.10;80.30
1367;DHT22;16877;48.810;9.282;2024-02-04T04:17:33;17.10;79.30
1367;DHT22;16877;48.810;9.282;2024-02-04T04:19:59;16.90;78.90
1367;DHT22;16877;48.810;9.282;2024-02-04T04:22:26;16.80;79.10
1367;DHT22;16877;48.810;9.282;2024-02-04T04:24:54;16.90;79.80
1367;DHT22;16877;48.810;9.282;2024-02-04T04:27:21;16.60;79.60
1367;DHT22;16877;48.810;9.282;2024-02-04T04:29:47;16.90;79.50
1367;DHT22;16877;48.810;9.282;2024-02-04T04:32:14;16.80;79.90
1367;DHT22;16877;48.810;9.282;2024-02-04T04:34:41;16.90;79.80
1367;DHT22;16877;48.810;9.282;2024-02-04T04:37:07;16.60;79.30
1367;DHT22;16877;48.810;9.282;2024-02-04T04:39:34;16.80;79.70
1367;DHT22;16877;48.810;9.282;2024-02-04T04:42:02;16.90;80.00
1367;DHT22;16877;48.810;9.282;2024-02-04T04:44:29;16.70;79.60
1367;DHT22;16877;48.810;9.282;2024-02-04T04:46:56;17.00;80.00
1367;DHT22;16877;48.810;9.282;2024-02-04T04:49:22;16.70;79.70
1367;DHT22;16877;48.810;9.282;2024-02-04T04:51:49;16.80;79.60
1367;DHT22;16877;48.810;9.282;2024-02-04T04:54:15;16.70;81.00
1367;DHT22;16877;48.810;9.282;2024-02-04T04:56:42;17.20;80.90
1367;DHT22;16877;48.810;9.282;2024-02-04T04:59:10;16.80;79.60
1367;DHT22;16877;48.810;9.282;2024-02-04T05:01:37;16.90;79.70
1367;DHT22;16877;48.810;9.282;2024-02-04T05:04:04;16.90;80.50
1367;DHT22;16877;48.810;9.282;2024-02-04T05:06:30;16.90;84.70
1367;DHT22;16877;48.810;9.282;2024-02-04T05:08:57;17.20;81.00
1367;DHT22;16877;48.810;9.282;2024-02-04T05:11:25;16.60;80.00
1367;DHT22;16877;48.810;9.282;2024-02-04T05:13:51;16.80;80.60
1367;DHT22;16877;48.810;9.282;2024-02-04T05:16:19;16.80;81.80
1367;DHT22;16877;48.810;9.282;2024-02-04T05:18:46;16.90;82.80
1367;DHT22;16877;48.810;9.282;2024-02-04T05:21:12;16.50;81.40
1367;DHT22;16877;48.810;9.282;2024-02-04T05:23:39;16.50;81.10
1367;DHT22;16877;48.810;9.282;2024-02-04T05:26:07;16.90;82.30
1367;DHT22;16877;48.810;9.282;2024-02-04T05:28:33;16.90;83.00
1367;DHT22;16877;48.810;9.282;2024-02-04T05:31:01;16.80;82.00
1367;DHT22;16877;48.810;9.282;2024-02-04T05:33:29;16.70;82.50
1367;DHT22;16877;48.810;9.282;2024-02-04T05:35:56;16.70;82.10
1367;DHT22;16877;48.810;9.282;2024-02-04T05:38:23;16.70;82.80
1367;DHT22;16877;48.810;9.282;2024-02-04T05:40:49;16.70;82.60
1367;DHT22;16877;48.810;9.282;2024-02-04T05:43:16;16.70;81.50
1367;DHT22;16877;48.810;9.282;2024-02-04T05:45:43;16.70;81.30
1367;DHT22;16877;48.810;9.282;2024-02-04T05:48:10;16.80;81.30
1367;DHT22;16877;48.810;9.282;2024-02-04T05:50:38;16.90;81.10
1367;DHT22;16877;48.810;9.282;2024-02-04T05:53:04;16.80;80.90
1367;DHT22;16877;48.810;9.282;2024-02-04T05:55:31;16.70;80.60
1367;DHT22;16877;48.810;9.282;2024-02-04T05:57:58;16.90;81.70
1367;DHT22;16877;48.810;9.282;2024-02-04T06:00:24;16.70;81.30
1367;DHT22;16877;48.810;9.282;2024-02-04T06:02:51;16.60;81.20
1367;DHT22;16877;48.810;9.282;2024-02-04T06:05:18;16.70;81.20
1367;DHT22;16877;48.810;9.282;2024-02-04T06:07:46;16.70;81.00
1367;DHT22;16877;48.810;9.282;2024-02-04T06:10:13;16.40;80.40
1367;DHT22;16877;48.810;9.282;2024-02-04T06:12:39;16.60;81.20
1367;DHT22;16877;48.810;9.282;2024-02-04T06:15:12;16.70;80.40
1367;DHT22;16877;48.810;9.282;2024-02-04T06:17:39;16.30;79.90
1367;DHT22;16877;48.810;9.282;2024-02-04T06:20:06;16.50;80.40
1367;DHT22;16877;48.810;9.282;2024-02-04T06:22:34;16.30;80.30
1367;DHT22;16877;48.810;9.282;2024-02-04T06:25:02;16.30;79.40
1367;DHT22;16877;48.810;9.282;2024-02-04T06:27:29;16.40;79.80
1367;DHT22;16877;48.810;9.282;2024-02-04T06:29:56;16.40;79.60
1367;DHT22;16877;48.810;9.282;2024-02-04T06:32:22;16.40;80.30
1367;DHT22;16877;48.810;9.282;2024-02-04T06:34:49;16.30;79.80
1367;DHT22;16877;48.810;9.282;2024-02-04T06:37:16;16.40;80.50
1367;DHT22;16877;48.810;9.282;2024-02-04T06:39:43;16.30;80.00
1367;DHT22;16877;48.810;9.282;2024-02-04T06:42:11;16.50;80.60
1367;DHT22;16877;48.810;9.282;2024-02-04T06:44:38;16.30;80.80
1367;DHT22;16877;48.810;9.282;2024-02-04T06:47:05;16.20;81.60
1367;DHT22;16877;48.810;9.282;2024-02-04T06:49:31;16.30;80.90
1367;DHT22;16877;48.810;9.282;2024-02-04T06:51:58;16.30;81.20
1367;DHT22;16877;48.810;9.282;2024-02-04T06:54:25;16.40;80.80
1367;DHT22;16877;48.810;9.282;2024-02-04T06:56:51;16.40;80.20
1367;DHT22;16877;48.810;9.282;2024-02-04T06:59:19;16.30;80.90
1367;DHT22;16877;48.810;9.282;2024-02-04T07:01:46;16.30;81.50
1367;DHT22;16877;48.810;9.282;2024-02-04T07:04:13;16.60;82.00
1367;DHT22;16877;48.810;9.282;2024-02-04T07:06:40;16.30;81.90
1367;DHT22;16877;48.810;9.282;2024-02-04T07:09:06;16.30;81.80
1367;DHT22;16877;48.810;9.282;2024-02-04T07:11:33;16.30;82.90
1367;DHT22;16877;48.810;9.282;2024-02-04T07:14:00;16.30;82.70
1367;DHT22;16877;48.810;9.282;2024-02-04T07:16:28;16.50;82.50
1367;DHT22;16877;48.810;9.282;2024-02-04T07:18:54;16.30;82.30
1367;DHT22;16877;48.810;9.282;2024-02-04T07:21:21;16.20;81.80
1367;DHT22;16877;48.810;9.282;2024-02-04T07:23:48;16.30;82.60
1367;DHT22;16877;48.810;9.282;2024-02-04T07:26:14;16.30;82.20
1367;DHT22;16877;48.810;9.282;2024-02-04T07:28:41;16.40;82.00
1367;DHT22;16877;48.810;9.282;2024-02-04T07:31:08;16.00;81.90
1367;DHT22;16877;48.810;9.282;2024-02-04T07:33:36;16.40;82.30
1367;DHT22;16877;48.810;9.282;2024-02-04T07:36:03;16.40;82.20
1367;DHT22;16877;48.810;9.282;2024-02-04T07:38:30;16.30;82.10
1367;DHT22;16877;48.810;9.282;2024-02-04T07:40:56;16.40;81.80
1367;DHT22;16877;48.810;9.282;2024-02-04T07:43:24;16.40;82.10
1367;DHT22;16877;48.810;9.282;2024-02-04T07:45:51;16.30;81.50
1367;DHT22;16877;48.810;9.282;2024-02-04T07:48:18;16.30;82.10
1367;DHT22;16877;48.810;9.282;2024-02-04T07:50:47;16.50;80.90
1367;DHT22;16877;48.810;9.282;2024-02-04T07:53:13;16.40;81.90
1367;DHT22;16877;48.810;9.282;2024-02-04T07:55:40;16.50;81.10
1367;DHT22;16877;48.810;9.282;2024-02-04T07:58:07;16.30;81.30
1367;DHT22;16877;48.810;9.282;2024-02-04T08:00:33;16.50;80.70
1367;DHT22;16877;48.810;9.282;2024-02-04T08:03:00;16.60;80.70
1367;DHT22;16877;48.810;9.282;2024-02-04T08:05:27;16.90;81.90
1367;DHT22;16877;48.810;9.282;2024-02-04T08:07:55;16.70;81.90
1367;DHT22;16877;48.810;9.282;2024-02-04T08:10:22;16.90;80.80
1367;DHT22;16877;48.810;9.282;2024-02-04T08:12:48;16.90;80.50
1367;DHT22;16877;48.810;9.282;2024-02-04T08:15:16;17.00;80.50
1367;DHT22;16877;48.810;9.282;2024-02-04T08:17:43;16.90;80.90
1367;DHT22;16877;48.810;9.282;2024-02-04T08:20:10;17.10;80.90
1367;DHT22;16877;48.810;9.282;2024-02-04T08:22:37;17.30;82.40
1367;DHT22;16877;48.810;9.282;2024-02-04T08:25:06;17.90;93.80
1367;DHT22;16877;48.810;9.282;2024-02-04T08:27:33;18.40;90.40
1367;DHT22;16877;48.810;9.282;2024-02-04T08:29:59;18.60;86.40
1367;DHT22;16877;48.810;9.282;2024-02-04T08:32:26;18.40;82.70
1367;DHT22;16877;48.810;9.282;2024-02-04T08:34:53;18.30;84.00
1367;DHT22;16877;48.810;9.282;2024-02-04T08:37:19;18.30;82.30
1367;DHT22;16877;48.810;9.282;2024-02-04T08:39:46;18.30;81.80
1367;DHT22;16877;48.810;9.282;2024-02-04T08:42:15;18.00;80.20
1367;DHT22;16877;48.810;9.282;2024-02-04T08:44:41;18.20;80.60
1367;DHT22;16877;48.810;9.282;2024-02-04T08:47:08;18.10;80.70
1367;DHT22;16877;48.810;9.282;2024-02-04T08:49:38;18.20;81.80
1367;DHT22;16877;48.810;9.282;2024-02-04T08:52:05;17.80;80.70
1367;DHT22;16877;48.810;9.282;2024-02-04T08:54:31;17.90;80.80
1367;DHT22;16877;48.810;9.282;2024-02-04T08:56:58;18.20;80.50
1367;DHT22;16877;48.810;9.282;2024-02-04T08:59:26;17.70;79.60
1367;DHT22;16877;48.810;9.282;2024-02-04T09:01:53;17.90;80.40
1367;DHT22;16877;48.810;9.282;2024-02-04T09:04:20;17.90;79.40
1367;DHT22;16877;48.810;9.282;2024-02-04T09:06:46;17.60;80.00
1367;DHT22;16877;48.810;9.282;2024-02-04T09:09:13;17.70;79.10
1367;DHT22;16877;48.810;9.282;2024-02-04T09:11:39;17.50;79.60
1367;DHT22;16877;48.810;9.282;2024-02-04T09:14:06;17.70;80.10
1367;DHT22;16877;48.810;9.282;2024-02-04T09:16:37;17.70;79.90
1367;DHT22;16877;48.810;9.282;2024-02-04T09:19:04;17.70;79.40
1367;DHT22;16877;48.810;9.282;2024-02-04T09:21:31;17.50;79.50
1367;DHT22;16877;48.810;9.282;2024-02-04T09:23:57;17.90;80.20
1367;DHT22;16877;48.810;9.282;2024-02-04T09:26:24;17.80;80.40
1367;DHT22;16877;48.810;9.282;2024-02-04T09:28:51;17.50;80.20
1367;DHT22;16877;48.810;9.282;2024-02-04T09:31:17;17.50;80.00
1367;DHT22;16877;48.810;9.282;2024-02-04T09:33:45;17.50;80.60
1367;DHT22;16877;48.810;9.282;2024-02-04T09:36:12;17.70;80.30
1367;DHT22;16877;48.810;9.282;2024-02-04T09:38:40;17.60;80.90
1367;DHT22;16877;48.810;9.282;2024-02-04T09:41:07;17.70;81.10
1367;DHT22;16877;48.810;9.282;2024-02-04T09:43:34;17.80;80.60
1367;DHT22;16877;48.810;9.282;2024-02-04T09:46:01;17.70;81.40
1367;DHT22;16877;48.810;9.282;2024-02-04T09:48:31;17.70;81.90
1367;DHT22;16877;48.810;9.282;2024-02-04T09:50:59;18.00;81.00
1367;DHT22;16877;48.810;9.282;2024-02-04T09:53:31;17.50;79.90
1367;DHT22;16877;48.810;9.282;2024-02-04T09:55:58;17.60;81.80
1367;DHT22;16877;48.810;9.282;2024-02-04T09:58:25;18.00;83.50
1367;DHT22;16877;48.810;9.282;2024-02-04T10:00:53;17.90;80.80
1367;DHT22;16877;48.810;9.282;2024-02-04T10:03:20;18.10;80.20
1367;DHT22;16877;48.810;9.282;2024-02-04T10:05:47;18.40;80.40
1367;DHT22;16877;48.810;9.282;2024-02-04T10:08:15;18.30;79.70
1367;DHT22;16877;48.810;9.282;2024-02-04T10:10:42;18.40;80.30
1367;DHT22;16877;48.810;9.282;2024-02-04T10:13:09;18.20;79.40
1367;DHT22;16877;48.810;9.282;2024-02-04T10:15:35;18.70;79.70
1367;DHT22;16877;48.810;9.282;2024-02-04T10:18:03;18.40;79.60
1367;DHT22;16877;48.810;9.282;2024-02-04T10:20:31;18.60;78.90
1367;DHT22;16877;48.810;9.282;2024-02-04T10:22:57;18.80;79.70
1367;DHT22;16877;48.810;9.282;2024-02-04T10:25:26;18.50;78.30
1367;DHT22;16877;48.810;9.282;2024-02-04T10:27:53;18.60;77.30
1367;DHT22;16877;48.810;9.282;2024-02-04T10:30:19;18.60;78.50
1367;DHT22;16877;48.810;9.282;2024-02-04T10:32:47;18.90;78.30
1367;DHT22;16877;48.810;9.282;2024-02-04T10:35:13;19.30;77.90
1367;DHT22;16877;48.810;9.282;2024-02-04T10:37:40;18.90;78.90
1367;DHT22;16877;48.810;9.282;2024-02-04T10:40:08;19.10;79.80
1367;DHT22;16877;48.810;9.282;2024-02-04T10:42:37;19.00;77.50
1367;DHT22;16877;48.810;9.282;2024-02-04T10:45:08;19.20;77.50
1367;DHT22;16877;48.810;9.282;2024-02-04T10:47:37;19.30;78.30
1367;DHT22;16877;48.810;9.282;2024-02-04T10:50:05;19.10;79.50
1367;DHT22;16877;48.810;9.282;2024-02-04T10:52:36;19.40;79.30
1367;DHT22;16877;48.810;9.282;2024-02-04T10:55:06;19.40;79.80
1367;DHT22;16877;48.810;9.282;2024-02-04T10:57:33;19.20;78.90
1367;DHT22;16877;48.810;9.282;2024-02-04T11:00:02;19.40;80.60
1367;DHT22;16877;48.810;9.282;2024-02-04T11:02:34;19.60;80.60
1367;DHT22;16877;48.810;9.282;2024-02-04T11:05:03;19.60;80.10
1367;DHT22;16877;48.810;9.282;2024-02-04T11:07:31;19.60;79.80
1367;DHT22;16877;48.810;9.282;2024-02-04T11:09:59;19.40;79.60
1367;DHT22;16877;48.810;9.282;2024-02-04T11:12:27;19.50;79.20
1367;DHT22;16877;48.810;9.282;2024-02-04T11:14:57;19.90;79.30
1367;DHT22;16877;48.810;9.282;2024-02-04T11:20:39;19.70;79.40
1367;DHT22;16877;48.810;9.282;2024-02-04T11:23:22;19.50;78.20
1367;DHT22;16877;48.810;9.282;2024-02-04T11:25:53;20.00;78.40
1367;DHT22;16877;48.810;9.282;2024-02-04T11:28:21;19.80;78.50
1367;DHT22;16877;48.810;9.282;2024-02-04T11:30:51;20.10;78.00
1367;DHT22;16877;48.810;9.282;2024-02-04T11:33:18;19.80;77.70
1367;DHT22;16877;48.810;9.282;2024-02-04T11:35:57;20.10;78.00
1367;DHT22;16877;48.810;9.282;2024-02-04T11:38:29;19.80;77.70
1367;DHT22;16877;48.810;9.282;2024-02-04T11:40:56;20.00;77.00
1367;DHT22;16877;48.810;9.282;2024-02-04T11:43:23;19.70;77.60
1367;DHT22;16877;48.810;9.282;2024-02-04T11:45:52;19.70;76.10
1367;DHT22;16877;48.810;9.282;2024-02-04T11:48:19;19.80;77.80
1367;DHT22;16877;48.810;9.282;2024-02-04T11:50:53;19.60;77.40
1367;DHT22;16877;48.810;9.282;2024-02-04T11:53:20;19.80;77.00
1367;DHT22;16877;48.810;9.282;2024-02-04T11:55:46;20.10;77.70
1367;DHT22;16877;48.810;9.282;2024-02-04T11:58:13;19.70;78.50
1367;DHT22;16877;48.810;9.282;2024-02-04T12:00:42;19.70;77.70
1367;DHT22;16877;48.810;9.282;2024-02-04T12:03:09;19.90;78.20
1367;DHT22;16877;48.810;9.282;2024-02-04T12:05:37;19.80;77.90
1367;DHT22;16877;48.810;9.282;2024-02-04T12:08:07;19.80;78.50
1367;DHT22;16877;48.810;9.282;2024-02-04T12:10:35;19.70;78.50
1367;DHT22;16877;48.810;9.282;2024-02-04T12:13:03;19.90;78.90
1367;DHT22;16877;48.810;9.282;2024-02-04T12:15:31;19.90;78.90
1367;DHT22;16877;48.810;9.282;2024-02-04T12:18:05;20.00;79.20
1367;DHT22;16877;48.810;9.282;2024-02-04T12:20:32;19.60;78.50
1367;DHT22;16877;48.810;9.282;2024-02-04T12:22:59;19.90;78.40
1367;DHT22;16877;48.810;9.282;2024-02-04T12:25:27;19.80;77.70
1367;DHT22;16877;48.810;9.282;2024-02-04T12:27:55;20.00;77.30
1367;DHT22;16877;48.810;9.282;2024-02-04T12:30:22;19.70;77.40
1367;DHT22;16877;48.810;9.282;2024-02-04T12:32:56;19.80;77.50
1367;DHT22;16877;48.810;9.282;2024-02-04T12:35:23;19.60;76.70
1367;DHT22;16877;48.810;9.282;2024-02-04T12:37:51;19.60;77.50
1367;DHT22;16877;48.810;9.282;2024-02-04T12:40:21;19.90;77.70
1367;DHT22;16877;48.810;9.282;2024-02-04T12:42:54;19.40;77.70
1367;DHT22;16877;48.810;9.282;2024-02-04T12:45:21;19.40;76.70
1367;DHT22;16877;48.810;9.282;2024-02-04T12:47:49;19.80;77.60
1367;DHT22;16877;48.810;9.282;2024-02-04T12:50:17;19.70;76.70
1367;DHT22;16877;48.810;9.282;2024-02-04T12:52:44;19.60;76.40
1367;DHT22;16877;48.810;9.282;2024-02-04T12:55:20;19.90;77.40
1367;DHT22;16877;48.810;9.282;2024-02-04T12:57:47;19.80;76.10
1367;DHT22;16877;48.810;9.282;2024-02-04T13:00:18;19.80;79.60
1367;DHT22;16877;48.810;9.282;2024-02-04T13:02:44;19.90;77.80
1367;DHT22;16877;48.810;9.282;2024-02-04T13:05:21;20.10;77.50
1367;DHT22;16877;48.810;9.282;2024-02-04T13:07:51;19.70;76.60
1367;DHT22;16877;48.810;9.282;2024-02-04T13:10:21;19.90;76.70
1367;DHT22;16877;48.810;9.282;2024-02-04T13:12:58;20.00;79.10
1367;DHT22;16877;48.810;9.282;2024-02-04T13:15:26;19.90;78.50
1367;DHT22;16877;48.810;9.282;2024-02-04T13:17:53;19.90;78.60
1367;DHT22;16877;48.810;9.282;2024-02-04T13:20:20;19.90;78.70
1367;DHT22;16877;48.810;9.282;2024-02-04T13:22:47;19.70;78.50
1367;DHT22;16877;48.810;9.282;2024-02-04T13:25:14;19.70;77.70
1367;DHT22;16877;48.810;9.282;2024-02-04T13:27:41;19.80;76.70
1367;DHT22;16877;48.810;9.282;2024-02-04T13:30:08;19.40;83.50
1367;DHT22;16877;48.810;9.282;2024-02-04T13:32:39;19.80;78.20
1367;DHT22;16877;48.810;9.282;2024-02-04T13:35:06;19.80;77.20
1367;DHT22;16877;48.810;9.282;2024-02-04T13:37:34;19.80;77.80
1367;DHT22;16877;48.810;9.282;2024-02-04T13:40:01;19.60;77.70
1367;DHT22;16877;48.810;9.282;2024-02-04T13:42:28;19.80;77.50
1367;DHT22;16877;48.810;9.282;2024-02-04T13:44:56;19.70;77.30
1367;DHT22;16877;48.810;9.282;2024-02-04T13:47:22;19.50;78.00
1367;DHT22;16877;48.810;9.282;2024-02-04T13:49:50;19.80;78.20
1367;DHT22;16877;48.810;9.282;2024-02-04T13:52:17;19.50;77.60
1367;DHT22;16877;48.810;9.282;2024-02-04T13:54:44;19.40;77.80
1367;DHT22;16877;48.810;9.282;2024-02-04T13:57:10;19.70;78.30
1367;DHT22;16877;48.810;9.282;2024-02-04T13:59:37;19.70;77.80
1367;DHT22;16877;48.810;9.282;2024-02-04T14:02:04;19.80;78.80
1367;DHT22;16877;48.810;9.282;2024-02-04T14:04:33;19.50;78.20
1367;DHT22;16877;48.810;9.282;2024-02-04T14:07:01;19.50;78.10
1367;DHT22;16877;48.810;9.282;2024-02-04T14:09:28;19.60;78.00
1367;DHT22;16877;48.810;9.282;2024-02-04T14:11:54;19.60;77.50
1367;DHT22;16877;48.810;9.282;2024-02-04T14:14:23;19.80;80.80
1367;DHT22;16877;48.810;9.282;2024-02-04T14:16:50;19.50;78.70
1367;DHT22;16877;48.810;9.282;2024-02-04T14:19:17;19.90;78.20
1367;DHT22;16877;48.810;9.282;2024-02-04T14:21:43;19.70;78.70
1367;DHT22;16877;48.810;9.282;2024-02-04T14:24:11;19.30;78.70
1367;DHT22;16877;48.810;9.282;2024-02-04T14:26:38;19.50;77.90
1367;DHT22;16877;48.810;9.282;2024-02-04T14:29:06;19.60;78.20
1367;DHT22;16877;48.810;9.282;2024-02-04T14:31:33;19.70;78.50
1367;DHT22;16877;48.810;9.282;2024-02-04T14:33:59;19.20;77.80
1367;DHT22;16877;48.810;9.282;2024-02-04T14:36:26;19.40;77.50
1367;DHT22;16877;48.810;9.282;2024-02-04T14:38:53;19.40;80.40
1367;DHT22;16877;48.810;9.282;2024-02-04T14:41:21;19.10;78.20
1367;DHT22;16877;48.810;9.282;2024-02-04T14:43:48;19.10;80.10
1367;DHT22;16877;48.810;9.282;2024-02-04T14:46:15;19.10;79.90
1367;DHT22;16877;48.810;9.282;2024-02-04T14:48:42;19.20;79.00
1367;DHT22;16877;48.810;9.282;2024-02-04T14:51:09;19.10;79.20
1367;DHT22;16877;48.810;9.282;2024-02-04T14:53:36;19.10;80.00
1367;DHT22;16877;48.810;9.282;2024-02-04T14:56:03;19.00;80.10
1367;DHT22;16877;48.810;9.282;2024-02-04T14:58:31;18.80;80.20
1367;DHT22;16877;48.810;9.282;2024-02-04T15:00:58;19.20;80.70
1367;DHT22;16877;48.810;9.282;2024-02-04T15:03:25;18.90;80.20
1367;DHT22;16877;48.810;9.282;2024-02-04T15:05:51;18.80;80.20
1367;DHT22;16877;48.810;9.282;2024-02-04T15:08:18;18.80;80.20
1367;DHT22;16877;48.810;9.282;2024-02-04T15:10:46;18.90;81.30
1367;DHT22;16877;48.810;9.282;2024-02-04T15:13:13;18.90;81.00
1367;DHT22;16877;48.810;9.282;2024-02-04T15:15:42;19.10;81.40
1367;DHT22;16877;48.810;9.282;2024-02-04T15:18:10;19.20;80.90
1367;DHT22;16877;48.810;9.282;2024-02-04T15:20:38;18.90;80.80
1367;DHT22;16877;48.810;9.282;2024-02-04T15:23:05;18.70;79.90
1367;DHT22;16877;48.810;9.282;2024-02-04T15:25:33;18.80;79.70
1367;DHT22;16877;48.810;9.282;2024-02-04T15:28:00;18.70;79.20
1367;DHT22;16877;48.810;9.282;2024-02-04T15:30:28;18.90;80.40
1367;DHT22;16877;48.810;9.282;2024-02-04T15:32:56;18.80;80.20
1367;DHT22;16877;48.810;9.282;2024-02-04T15:35:24;18.90;80.40
1367;DHT22;16877;48.810;9.282;2024-02-04T15:37:51;18.70;80.60
1367;DHT22;16877;48.810;9.282;2024-02-04T15:40:17;18.80;80.30
1367;DHT22;16877;48.810;9.282;2024-02-04T15:42:44;18.50;80.00
1367;DHT22;16877;48.810;9.282;2024-02-04T15:45:11;18.40;79.50
1367;DHT22;16877;48.810;9.282;2024-02-04T15:47:44;18.40;79.70
1367;DHT22;16877;48.810;9.282;2024-02-04T15:50:17;18.60;79.70